Aviation Digital Data Service (ADDS)

Output produced by TAFs form (0849 UTC 27 June 2017)
found at http://www.aviationweather.gov/adds/tafs/
 
KALB 270531Z 2706/2806 VRB04KT P6SM -SHRA SCT050 OVC070 
     FM270800 VRB03KT P6SM BCFG BKN070 
     FM271100 VRB03KT P6SM BKN070 
     FM271600 22008KT P6SM BKN070 
     PROB30 2717/2723 3SM -TSRA OVC030CB 
     FM272300 28005KT P6SM BKN070 
     FM280100 28004KT P6SM SCT100